Time;durP1;ratioP1;P1;durP2;ratioP2;P2;SDS_P1;SDS_P2;PMS_P1;PMS_P2;Temp;Humidity;BMP_temperature;BMP_pressure;BME280_temperature;BME280_humidity;BME280_pressure;Samples;Min_cycle;Max_cycle;Signal;HPM_P1;HPM_P2
2023/12/23 00:00:09;;;;;;;;;;;;;;;12.62;71.96;100863.47;7363029;19;19942;-68
2023/12/23 00:02:34;;;;;;;;;;;;;;;12.63;72.02;100877.41;7361845;19;19919;-65
2023/12/23 00:14:12;;;;;;;;;;;;;;;12.65;71.75;100857.25;7362043;19;19935;-66
2023/12/23 00:16:37;;;;;;;;;;;;;;;12.65;71.59;100865.97;7347316;19;19922;-66
2023/12/23 00:19:03;;;;;;;;;;;;;;;12.66;71.43;100877.31;7358827;19;20809;-66
2023/12/23 00:21:29;;;;;;;;;;;;;;;12.66;71.74;100883.41;7356827;19;19949;-68
2023/12/23 00:23:54;;;;;;;;;;;;;;;12.65;71.69;100849.41;7361491;19;20456;-67
2023/12/23 00:26:19;;;;;;;;;;;;;;;12.64;71.51;100859.03;7355001;19;19918;-68
2023/12/23 00:28:45;;;;;;;;;;;;;;;12.62;71.09;100866.09;7361209;19;19956;-68
2023/12/23 00:31:10;;;;;;;;;;;;;;;12.61;71.33;100874.81;7366076;19;20734;-66
2023/12/23 00:33:35;;;;;;;;;;;;;;;12.58;71.15;100861.84;7360674;19;20665;-66
2023/12/23 00:36:01;;;;;;;;;;;;;;;12.57;71.31;100857.50;7355893;19;19926;-65
2023/12/23 00:38:26;;;;;;;;;;;;;;;12.55;71.32;100869.75;7360571;19;19951;-67
2023/12/23 00:40:51;;;;;;;;;;;;;;;12.53;71.58;100879.44;7360774;19;19929;-66
2023/12/23 00:43:17;;;;;;;;;;;;;;;12.52;71.19;100874.22;7353425;19;20337;-66
2023/12/23 00:45:42;;;;;;;;;;;;;;;12.51;71.60;100862.03;7358427;19;19929;-69
2023/12/23 00:48:07;;;;;;;;;;;;;;;12.50;71.58;100876.03;7358527;19;19933;-66
2023/12/23 00:50:34;;;;;;;;;;;;;;;12.49;71.63;100853.38;7361258;19;19923;-66
2023/12/23 00:53:02;;;;;;;;;;;;;;;12.49;71.18;100853.38;7362362;19;20259;-67
2023/12/23 00:55:27;;;;;;;;;;;;;;;12.48;71.46;100868.22;7367888;19;20336;-65
2023/12/23 00:57:52;;;;;;;;;;;;;;;12.47;71.56;100874.38;7361630;19;19939;-67
2023/12/23 01:00:17;;;;;;;;;;;;;;;12.47;71.51;100861.28;7357681;19;19929;-68
2023/12/23 02:11:24;;;;;;;;;;;;;;;12.33;69.82;100761.28;7375975;19;19932;-67
2023/12/23 02:13:58;;;;;;;;;;;;;;;12.31;69.91;100769.16;7364926;19;19926;-67
2023/12/23 02:16:23;;;;;;;;;;;;;;;12.31;70.07;100755.22;7367956;19;19978;-67
2023/12/23 02:18:48;;;;;;;;;;;;;;;12.30;70.03;100758.75;7366363;19;19983;-66
2023/12/23 02:21:14;;;;;;;;;;;;;;;12.28;69.88;100758.81;7366847;19;19942;-68
2023/12/23 02:23:39;;;;;;;;;;;;;;;12.28;70.13;100776.28;7369193;19;19954;-67
2023/12/23 02:26:08;;;;;;;;;;;;;;;12.29;70.13;100762.28;7363232;19;20473;-66
2023/12/23 02:28:34;;;;;;;;;;;;;;;12.29;69.88;100762.28;7368880;19;20359;-67
2023/12/23 02:31:00;;;;;;;;;;;;;;;12.30;70.18;100766.59;7362848;19;19911;-68
2023/12/23 02:33:25;;;;;;;;;;;;;;;12.30;70.21;100748.28;7365172;19;20315;-68
2023/12/23 02:35:52;;;;;;;;;;;;;;;12.31;69.68;100749.97;7362571;19;20009;-67
2023/12/23 02:38:19;;;;;;;;;;;;;;;12.32;69.75;100751.72;7368340;19;19918;-68
2023/12/23 02:40:44;;;;;;;;;;;;;;;12.30;70.14;100756.97;7362928;19;19943;-68
2023/12/23 02:43:09;;;;;;;;;;;;;;;12.30;69.93;100772.69;7365852;19;21051;-68
2023/12/23 02:45:35;;;;;;;;;;;;;;;12.30;69.97;100763.97;7366841;19;20363;-67
2023/12/23 02:48:00;;;;;;;;;;;;;;;12.31;70.22;100770.94;7360170;19;20295;-67
2023/12/23 02:50:25;;;;;;;;;;;;;;;12.30;69.91;100763.97;7365261;19;19970;-66
2023/12/23 02:52:51;;;;;;;;;;;;;;;12.29;70.07;100780.59;7356219;19;20158;-68
2023/12/23 02:55:18;;;;;;;;;;;;;;;12.30;69.86;100763.97;7364848;19;19922;-67
2023/12/23 02:57:43;;;;;;;;;;;;;;;12.27;69.81;100769.34;7361293;19;19930;-67
2023/12/23 03:00:09;;;;;;;;;;;;;;;12.23;70.06;100768.53;7362992;19;19954;-66
2023/12/23 03:02:34;;;;;;;;;;;;;;;12.21;70.18;100767.72;7367940;19;19982;-67
2023/12/23 04:13:02;;;;;;;;;;;;;;;11.68;70.92;100702.84;7398036;19;20204;-67
2023/12/23 04:15:27;;;;;;;;;;;;;;;11.67;71.28;100701.16;7365291;19;20656;-67
2023/12/23 04:17:52;;;;;;;;;;;;;;;11.65;70.93;100687.22;7343389;19;19926;-64
2023/12/23 04:20:18;;;;;;;;;;;;;;;11.64;70.90;100690.75;7357335;19;19923;-64
2023/12/23 04:22:48;;;;;;;;;;;;;;;11.61;71.06;100696.09;7362598;19;20006;-66
2023/12/23 04:25:13;;;;;;;;;;;;;;;11.59;70.86;100687.41;7367058;19;19922;-66
2023/12/23 04:27:39;;;;;;;;;;;;;;;11.58;70.82;100696.16;7366374;19;19921;-67
2023/12/23 04:30:04;;;;;;;;;;;;;;;11.56;71.09;100684.91;7356241;19;19946;-65
2023/12/23 04:32:30;;;;;;;;;;;;;;;11.54;70.94;100699.75;7345238;19;20338;-66
2023/12/23 04:34:55;;;;;;;;;;;;;;;11.55;71.20;100696.22;7344563;19;19923;-66
2023/12/23 04:37:20;;;;;;;;;;;;;;;11.54;71.36;100691.06;7365650;19;20758;-65
2023/12/23 04:39:46;;;;;;;;;;;;;;;11.53;71.63;100671.03;7363339;19;19922;-63
2023/12/23 04:42:11;;;;;;;;;;;;;;;11.54;71.13;100689.28;7365236;19;20240;-67
2023/12/23 04:44:36;;;;;;;;;;;;;;;11.54;71.43;100678.81;7322232;19;19958;-65
2023/12/23 04:47:01;;;;;;;;;;;;;;;11.56;71.66;100686.66;7359846;19;19986;-66
2023/12/23 04:49:27;;;;;;;;;;;;;;;11.56;71.68;100702.34;7360792;19;19919;-65
2023/12/23 04:51:52;;;;;;;;;;;;;;;11.58;71.49;100693.53;7365343;19;19986;-65
2023/12/23 04:54:17;;;;;;;;;;;;;;;11.59;71.72;100671.72;7366774;19;19953;-65
2023/12/23 04:56:42;;;;;;;;;;;;;;;11.60;71.71;100678.66;7366754;19;19915;-65
2023/12/23 04:59:08;;;;;;;;;;;;;;;11.62;71.29;100682.09;7363732;19;20610;-66
2023/12/23 05:01:33;;;;;;;;;;;;;;;11.63;71.84;100693.44;7365305;19;19955;-67
2023/12/23 05:03:58;;;;;;;;;;;;;;;11.64;71.45;100674.22;7362447;19;19978;-66
2023/12/23 05:06:24;;;;;;;;;;;;;;;11.65;71.54;100682.00;7364825;19;20596;-66
2023/12/23 05:08:49;;;;;;;;;;;;;;;11.66;71.48;100654.97;7365455;19;20268;-65
2023/12/23 05:11:14;;;;;;;;;;;;;;;11.68;71.45;100650.53;7359159;19;19911;-65
2023/12/23 05:13:39;;;;;;;;;;;;;;;11.70;71.84;100648.72;7358455;19;19919;-66
2023/12/23 05:16:05;;;;;;;;;;;;;;;11.72;71.73;100625.16;7364943;19;19919;-66
2023/12/23 05:18:30;;;;;;;;;;;;;;;11.74;71.75;100638.19;7368820;19;19926;-67
2023/12/23 05:20:55;;;;;;;;;;;;;;;11.74;71.35;100665.19;7371258;19;19978;-66
2023/12/23 05:23:21;;;;;;;;;;;;;;;11.75;71.52;100634.66;7371074;19;20250;-66
2023/12/23 05:25:46;;;;;;;;;;;;;;;11.75;71.60;100640.75;7362967;19;20006;-66
2023/12/23 07:14:10;;;;;;;;;;;;;;;12.15;71.83;100614.28;7375356;19;19964;-64
2023/12/23 07:16:35;;;;;;;;;;;;;;;12.17;71.67;100609.03;7362880;19;19927;-67
2023/12/23 07:19:01;;;;;;;;;;;;;;;12.17;71.36;100612.50;7369765;19;19982;-68
2023/12/23 07:21:26;;;;;;;;;;;;;;;12.18;71.35;100595.03;7364749;19;20019;-68
2023/12/23 07:23:51;;;;;;;;;;;;;;;12.19;71.29;100588.91;7358896;19;19929;-67
2023/12/23 07:26:16;;;;;;;;;;;;;;;12.20;71.31;100601.94;7364827;19;20950;-67
2023/12/23 07:28:42;;;;;;;;;;;;;;;12.20;71.48;100595.84;7362928;19;20612;-67
2023/12/23 07:31:07;;;;;;;;;;;;;;;12.22;71.60;100595.81;7368100;19;19923;-68
2023/12/23 07:33:32;;;;;;;;;;;;;;;12.23;71.66;100589.66;7367461;19;19923;-68
2023/12/23 07:35:58;;;;;;;;;;;;;;;12.24;71.68;100596.59;7367813;19;19922;-68
2023/12/23 08:12:28;;;;;;;;;;;;;;;12.31;71.02;100601.59;7397077;19;20279;-69
2023/12/23 08:14:53;;;;;;;;;;;;;;;12.32;71.24;100597.25;7363128;19;19961;-69
2023/12/23 08:17:19;;;;;;;;;;;;;;;12.30;71.25;100601.66;7369962;19;19914;-67
2023/12/23 08:19:44;;;;;;;;;;;;;;;12.30;71.10;100601.66;7362078;19;19911;-68
2023/12/23 08:22:10;;;;;;;;;;;;;;;12.31;71.44;100608.59;7364974;19;19927;-69
2023/12/23 08:24:35;;;;;;;;;;;;;;;12.30;71.39;100596.41;7365717;19;19907;-65
2023/12/23 08:27:00;;;;;;;;;;;;;;;12.31;71.44;100613.81;7345793;19;19935;-66
2023/12/23 08:29:25;;;;;;;;;;;;;;;12.32;71.42;100608.56;7364257;19;19974;-67
2023/12/23 08:31:51;;;;;;;;;;;;;;;12.33;71.05;100606.81;7365664;19;19923;-69
2023/12/23 08:34:16;;;;;;;;;;;;;;;12.33;71.34;100612.03;7361384;19;19919;-66
2023/12/23 08:36:42;;;;;;;;;;;;;;;12.33;71.07;100607.66;7363506;19;19983;-67
2023/12/23 08:39:07;;;;;;;;;;;;;;;12.29;71.37;100594.69;7361133;19;20560;-66
2023/12/23 08:41:35;;;;;;;;;;;;;;;12.36;71.04;100593.59;7356378;19;19933;-67
2023/12/23 08:44:00;;;;;;;;;;;;;;;12.36;71.29;100604.06;7363791;19;19923;-69
2023/12/23 08:46:26;;;;;;;;;;;;;;;12.36;71.11;100581.34;7363585;19;19932;-69
2023/12/23 08:48:51;;;;;;;;;;;;;;;12.37;71.10;100595.31;7357820;19;19915;-66
2023/12/23 08:51:16;;;;;;;;;;;;;;;12.37;71.07;100597.94;7364208;19;19923;-65
2023/12/23 08:53:41;;;;;;;;;;;;;;;12.37;71.45;100577.00;7365207;19;20679;-67
2023/12/23 08:56:06;;;;;;;;;;;;;;;12.37;71.47;100577.84;7356639;19;19938;-68
2023/12/23 08:58:32;;;;;;;;;;;;;;;12.38;71.14;100578.72;7365707;19;19918;-68
2023/12/23 09:00:57;;;;;;;;;;;;;;;12.28;71.00;100561.56;7360787;19;19925;-69
2023/12/23 09:03:23;;;;;;;;;;;;;;;12.38;70.98;100583.94;7330464;19;19918;-66
2023/12/23 09:05:48;;;;;;;;;;;;;;;12.39;71.32;100577.78;7371890;19;19915;-66
2023/12/23 09:08:13;;;;;;;;;;;;;;;12.39;71.16;100575.19;7368421;19;19923;-68
2023/12/23 09:10:39;;;;;;;;;;;;;;;12.39;71.43;100569.94;7372627;19;20046;-69
2023/12/23 09:13:04;;;;;;;;;;;;;;;12.39;71.20;100585.66;7363163;19;19918;-68
2023/12/23 09:15:29;;;;;;;;;;;;;;;12.39;71.58;100580.41;7368899;19;19986;-67
2023/12/23 09:17:55;;;;;;;;;;;;;;;12.39;71.58;100586.50;7371190;19;19927;-69
2023/12/23 09:20:20;;;;;;;;;;;;;;;12.40;71.21;100589.97;7370796;19;20005;-68
2023/12/23 09:22:45;;;;;;;;;;;;;;;12.39;71.37;100585.66;7374497;19;19937;-67
2023/12/23 09:25:10;;;;;;;;;;;;;;;12.39;71.53;100583.88;7367711;19;20342;-67
2023/12/23 09:27:36;;;;;;;;;;;;;;;12.41;71.30;100589.91;7369430;19;19922;-68
2023/12/23 09:30:01;;;;;;;;;;;;;;;12.40;71.34;100590.81;7370434;19;19914;-69
2023/12/23 09:32:26;;;;;;;;;;;;;;;12.41;71.39;100583.81;7370095;19;19926;-66
2023/12/23 09:34:54;;;;;;;;;;;;;;;12.40;71.36;100588.22;7370718;19;19919;-67
2023/12/23 09:37:20;;;;;;;;;;;;;;;12.39;71.69;100586.50;7373341;19;19926;-68
2023/12/23 09:39:46;;;;;;;;;;;;;;;12.40;71.72;100600.44;7375400;19;19922;-68
2023/12/23 09:42:11;;;;;;;;;;;;;;;12.40;71.53;100587.34;7374046;19;19946;-68
2023/12/23 09:44:36;;;;;;;;;;;;;;;12.39;71.92;100596.13;7368301;19;19914;-68
2023/12/23 09:47:04;;;;;;;;;;;;;;;12.39;71.99;100596.97;7373468;19;19918;-69
2023/12/23 09:49:29;;;;;;;;;;;;;;;12.38;72.10;100584.78;7361492;19;19954;-67
2023/12/23 09:51:55;;;;;;;;;;;;;;;12.38;71.71;100583.94;7368356;19;19935;-68
2023/12/23 09:54:22;;;;;;;;;;;;;;;12.38;71.86;100570.84;7364834;19;19923;-68
2023/12/23 09:56:47;;;;;;;;;;;;;;;12.38;71.92;100563.00;7365819;19;19934;-68
2023/12/23 09:59:13;;;;;;;;;;;;;;;12.39;72.09;100569.94;7368072;19;20621;-68
2023/12/23 10:01:38;;;;;;;;;;;;;;;12.39;72.20;100570.78;7370525;19;19939;-68
2023/12/23 10:04:03;;;;;;;;;;;;;;;12.40;72.44;100562.03;7359338;19;20552;-67
2023/12/23 10:06:29;;;;;;;;;;;;;;;12.40;72.30;100571.66;7359117;19;20264;-67
2023/12/23 10:08:54;;;;;;;;;;;;;;;12.41;72.49;100570.72;7357162;19;19950;-67
2023/12/23 10:11:19;;;;;;;;;;;;;;;12.43;72.67;100566.31;7360275;19;19918;-68
2023/12/23 10:13:45;;;;;;;;;;;;;;;12.45;72.49;100564.50;7357443;19;19931;-67
2023/12/23 10:16:11;;;;;;;;;;;;;;;12.46;72.24;100571.44;7355824;19;19938;-66
2023/12/23 10:18:38;;;;;;;;;;;;;;;12.48;72.68;100574.88;7365183;19;20259;-68
2023/12/23 10:21:04;;;;;;;;;;;;;;;12.44;72.41;100557.56;7366936;19;19926;-68
2023/12/23 10:23:29;;;;;;;;;;;;;;;12.51;72.34;100572.16;7364203;19;19911;-67
2023/12/23 10:25:54;;;;;;;;;;;;;;;12.52;72.40;100571.25;7362442;19;20310;-67
2023/12/23 10:28:21;;;;;;;;;;;;;;;12.51;72.65;100569.53;7363869;19;19942;-68
2023/12/23 10:30:50;;;;;;;;;;;;;;;12.52;72.46;100575.63;7362946;19;19939;-66
2023/12/23 10:33:21;;;;;;;;;;;;;;;12.51;72.31;100569.53;7317119;19;19918;-66
2023/12/23 10:35:47;;;;;;;;;;;;;;;12.50;72.67;100567.81;7354080;19;19919;-67
2023/12/23 10:38:14;;;;;;;;;;;;;;;12.49;72.31;100571.34;7361905;19;19915;-66
2023/12/23 10:40:42;;;;;;;;;;;;;;;12.49;72.67;100580.97;7360377;19;19914;-69
2023/12/23 10:43:09;;;;;;;;;;;;;;;12.48;72.32;100574.88;7360383;19;19918;-68
2023/12/23 10:45:35;;;;;;;;;;;;;;;12.47;72.31;100581.03;7364012;19;19990;-66
2023/12/23 10:48:00;;;;;;;;;;;;;;;12.47;72.53;100594.13;7340839;19;21094;-68
2023/12/23 10:50:26;;;;;;;;;;;;;;;12.48;72.77;100590.59;7358589;19;20975;-67
2023/12/23 10:52:52;;;;;;;;;;;;;;;12.47;72.95;100578.41;7356752;19;19926;-67
2023/12/23 10:55:19;;;;;;;;;;;;;;;12.46;72.82;100576.69;7357542;19;19938;-68
2023/12/23 10:57:47;;;;;;;;;;;;;;;12.46;72.96;100584.53;7360649;19;19928;-67
2023/12/23 11:00:13;;;;;;;;;;;;;;;12.48;72.78;100582.75;7359892;19;19937;-68
2023/12/23 11:02:39;;;;;;;;;;;;;;;12.50;72.73;100573.06;7360993;19;19964;-66
2023/12/23 11:05:06;;;;;;;;;;;;;;;12.50;73.08;100572.19;7357862;19;19919;-67
2023/12/23 11:07:34;;;;;;;;;;;;;;;12.50;73.03;100567.81;7360202;19;20627;-67
2023/12/23 11:10:01;;;;;;;;;;;;;;;12.51;73.21;100561.66;7365895;19;19957;-68
2023/12/23 11:12:29;;;;;;;;;;;;;;;12.51;72.96;100559.06;7356375;19;19922;-68
2023/12/23 11:14:55;;;;;;;;;;;;;;;12.53;73.14;100578.22;7357830;19;19919;-68
2023/12/23 11:17:26;;;;;;;;;;;;;;;12.53;73.33;100546.78;7362529;19;19958;-66
2023/12/23 11:19:54;;;;;;;;;;;;;;;12.55;73.10;100549.34;7362428;19;19922;-67
2023/12/23 11:22:29;;;;;;;;;;;;;;;12.55;73.34;100547.56;7361070;19;19927;-68
2023/12/23 11:24:55;;;;;;;;;;;;;;;12.56;73.08;100536.19;7362440;19;19997;-69
2023/12/23 11:27:34;;;;;;;;;;;;;;;12.56;72.83;100523.09;7361632;19;20001;-67
2023/12/23 11:30:00;;;;;;;;;;;;;;;12.56;72.91;100540.56;7367829;19;19918;-67
2023/12/23 11:32:25;;;;;;;;;;;;;;;12.57;72.96;100544.88;7358533;19;20322;-66
2023/12/23 11:34:51;;;;;;;;;;;;;;;12.57;73.03;100543.16;7360949;19;20292;-67
2023/12/23 11:37:16;;;;;;;;;;;;;;;12.57;73.38;100522.19;7359977;19;19947;-68
2023/12/23 11:39:42;;;;;;;;;;;;;;;12.58;73.13;100518.66;7370065;19;20320;-68
2023/12/23 11:42:07;;;;;;;;;;;;;;;12.60;73.07;100518.59;7362939;19;20420;-66
2023/12/23 11:44:33;;;;;;;;;;;;;;;12.60;73.22;100508.97;7361109;19;19930;-67
2023/12/23 11:46:58;;;;;;;;;;;;;;;12.60;72.98;100514.22;7360707;19;20688;-69
2023/12/23 11:49:23;;;;;;;;;;;;;;;12.60;73.14;100511.59;7361775;19;20585;-67
2023/12/23 11:51:49;;;;;;;;;;;;;;;12.61;73.47;100492.34;7360909;19;19925;-67
2023/12/23 11:54:14;;;;;;;;;;;;;;;12.61;73.10;100494.97;7335672;19;19922;-67
2023/12/23 11:56:39;;;;;;;;;;;;;;;12.63;73.53;100500.19;7356364;19;19961;-67
2023/12/23 11:59:05;;;;;;;;;;;;;;;12.63;73.18;100495.78;7362753;19;19922;-68
2023/12/23 12:01:31;;;;;;;;;;;;;;;12.64;73.72;100502.72;7362180;19;19930;-68
2023/12/23 12:03:56;;;;;;;;;;;;;;;12.66;73.60;100485.19;7369780;19;20612;-66
2023/12/23 12:06:23;;;;;;;;;;;;;;;12.69;73.83;100485.09;7356580;19;20344;-66
2023/12/23 12:08:48;;;;;;;;;;;;;;;12.71;73.80;100498.97;7361678;19;19918;-67
2023/12/23 12:11:14;;;;;;;;;;;;;;;12.76;73.75;100482.25;7358469;19;19922;-69
2023/12/23 12:13:40;;;;;;;;;;;;;;;12.76;73.46;100479.63;7357781;19;20252;-67
2023/12/23 12:16:05;;;;;;;;;;;;;;;12.79;73.59;100480.38;7359341;19;19932;-66
2023/12/23 12:18:30;;;;;;;;;;;;;;;12.81;73.64;100475.09;7364586;19;19922;-68
2023/12/23 12:20:56;;;;;;;;;;;;;;;12.83;73.59;100483.75;7358448;19;20627;-68
2023/12/23 12:23:21;;;;;;;;;;;;;;;12.85;73.78;100484.56;7363880;19;19940;-67
2023/12/23 12:25:50;;;;;;;;;;;;;;;12.87;73.47;100469.63;7363881;19;20560;-66
2023/12/23 12:28:16;;;;;;;;;;;;;;;12.90;73.76;100466.91;7363101;19;19927;-66
2023/12/23 12:30:41;;;;;;;;;;;;;;;12.92;73.43;100475.53;7369245;19;20026;-67
2023/12/23 12:33:08;;;;;;;;;;;;;;;12.93;73.62;100461.56;7358791;19;19962;-66
2023/12/23 12:35:34;;;;;;;;;;;;;;;12.94;73.44;100453.63;7367232;19;19942;-68
2023/12/23 12:37:59;;;;;;;;;;;;;;;12.96;73.50;100450.94;7356620;19;20736;-68
2023/12/23 12:40:25;;;;;;;;;;;;;;;12.97;73.59;100458.75;7361749;19;20746;-68
2023/12/23 12:42:51;;;;;;;;;;;;;;;12.98;73.27;100454.38;7364335;19;20299;-67
2023/12/23 12:45:17;;;;;;;;;;;;;;;12.98;73.14;100460.47;7368414;19;19942;-68
2023/12/23 12:47:42;;;;;;;;;;;;;;;12.98;73.27;100449.13;7363705;19;19950;-68
2023/12/23 12:50:07;;;;;;;;;;;;;;;12.98;73.13;100438.66;7361978;19;19915;-68
2023/12/23 12:52:34;;;;;;;;;;;;;;;12.98;72.98;100442.13;7363343;19;20263;-66
2023/12/23 12:55:00;;;;;;;;;;;;;;;12.98;72.66;100428.16;7357603;19;19927;-69
2023/12/23 12:57:28;;;;;;;;;;;;;;;12.97;72.62;100408.09;7366734;19;19927;-68
2023/12/23 12:59:53;;;;;;;;;;;;;;;12.95;72.93;100391.56;7357583;19;20373;-68
2023/12/23 13:02:18;;;;;;;;;;;;;;;12.94;72.70;100379.38;7360303;19;19929;-67
2023/12/23 13:04:44;;;;;;;;;;;;;;;12.93;72.99;100370.69;7361145;19;19915;-68
2023/12/23 13:07:09;;;;;;;;;;;;;;;12.92;72.99;100361.09;7361847;19;19953;-67
2023/12/23 13:09:34;;;;;;;;;;;;;;;12.93;72.66;100356.72;7365526;19;20005;-69
2023/12/23 13:11:59;;;;;;;;;;;;;;;12.94;72.81;100358.44;7366232;19;20457;-66
2023/12/23 13:14:25;;;;;;;;;;;;;;;12.96;73.22;100388.03;7358837;19;20332;-67
2023/12/23 13:16:50;;;;;;;;;;;;;;;12.97;73.03;100384.50;7358094;19;19940;-66
2023/12/23 13:19:15;;;;;;;;;;;;;;;12.99;72.67;100382.69;7357982;19;20327;-67
2023/12/23 13:21:41;;;;;;;;;;;;;;;13.01;72.90;100375.63;7362316;19;20006;-66
2023/12/23 13:24:06;;;;;;;;;;;;;;;13.02;72.55;100351.09;7361744;19;19930;-68
2023/12/23 13:26:31;;;;;;;;;;;;;;;13.03;72.82;100358.09;7352860;19;20320;-68
2023/12/23 13:28:56;;;;;;;;;;;;;;;13.04;72.42;100354.53;7355675;19;19919;-66
2023/12/23 13:31:22;;;;;;;;;;;;;;;13.05;72.66;100353.63;7359767;19;20695;-67
2023/12/23 13:33:47;;;;;;;;;;;;;;;13.06;72.20;100329.09;7361764;19;19931;-66
2023/12/23 13:36:12;;;;;;;;;;;;;;;13.06;72.02;100357.94;7360756;19;19923;-67
2023/12/23 13:38:41;;;;;;;;;;;;;;;13.06;71.92;100352.69;7353388;19;20531;-67
2023/12/23 13:41:08;;;;;;;;;;;;;;;13.06;72.32;100352.69;7358074;19;19915;-67
2023/12/23 13:43:34;;;;;;;;;;;;;;;13.06;72.19;100352.69;7359298;19;19915;-67
2023/12/23 13:45:59;;;;;;;;;;;;;;;13.06;72.18;100355.31;7360108;19;19929;-67
2023/12/23 13:48:24;;;;;;;;;;;;;;;13.06;72.13;100336.97;7358123;19;19956;-66
2023/12/23 13:50:50;;;;;;;;;;;;;;;13.07;72.17;100337.81;7357698;19;19938;-68
2023/12/23 13:53:15;;;;;;;;;;;;;;;13.06;72.05;100316.00;7364584;19;19922;-67
2023/12/23 13:55:43;;;;;;;;;;;;;;;13.07;72.14;100316.84;7364954;19;19930;-67
2023/12/23 13:58:10;;;;;;;;;;;;;;;13.07;71.75;100312.47;7365311;19;20271;-66
2023/12/23 14:00:36;;;;;;;;;;;;;;;13.11;71.83;100315.81;7374544;19;20301;-65
2023/12/23 14:03:01;;;;;;;;;;;;;;;13.11;71.96;100319.28;7367856;19;20393;-66
2023/12/23 14:05:27;;;;;;;;;;;;;;;13.13;72.22;100335.84;7366507;19;19915;-67
2023/12/23 14:07:52;;;;;;;;;;;;;;;13.16;71.74;100329.59;7362314;19;20600;-67
2023/12/23 14:10:17;;;;;;;;;;;;;;;13.18;71.86;100331.28;7362676;19;19933;-67
2023/12/23 14:12:42;;;;;;;;;;;;;;;13.20;71.85;100333.81;7364476;19;19952;-67
2023/12/23 14:15:08;;;;;;;;;;;;;;;13.21;71.69;100331.16;7363104;19;19919;-66
2023/12/23 14:17:33;;;;;;;;;;;;;;;13.23;71.66;100324.13;7371755;19;20016;-65
2023/12/23 14:19:58;;;;;;;;;;;;;;;13.24;71.64;100330.19;7363818;19;19938;-66
2023/12/23 14:22:23;;;;;;;;;;;;;;;13.26;71.72;100296.03;7360894;19;19926;-65
2023/12/23 14:24:49;;;;;;;;;;;;;;;13.26;71.83;100301.28;7361073;19;19918;-68
2023/12/23 14:27:14;;;;;;;;;;;;;;;13.27;71.74;100319.56;7365554;19;20720;-66
2023/12/23 14:29:41;;;;;;;;;;;;;;;13.28;71.47;100284.59;7357161;19;19927;-68
2023/12/23 14:32:06;;;;;;;;;;;;;;;13.29;71.22;100291.53;7365318;19;20367;-67
2023/12/23 14:34:31;;;;;;;;;;;;;;;13.29;71.69;100291.53;7363262;19;19975;-67
2023/12/23 14:36:56;;;;;;;;;;;;;;;13.30;71.35;100276.66;7365212;19;19922;-66
2023/12/23 14:39:22;;;;;;;;;;;;;;;13.30;71.22;100271.41;7365236;19;20646;-64
2023/12/23 14:41:47;;;;;;;;;;;;;;;13.30;71.29;100274.03;7365949;19;19971;-66
2023/12/23 14:44:12;;;;;;;;;;;;;;;13.32;71.52;100259.06;7363097;19;19926;-68
2023/12/23 14:46:38;;;;;;;;;;;;;;;13.32;71.60;100248.59;7364972;19;19919;-68
2023/12/23 14:49:04;;;;;;;;;;;;;;;13.32;71.55;100259.94;7360411;19;19986;-66
2023/12/23 14:51:30;;;;;;;;;;;;;;;13.33;71.39;100250.28;7364815;19;19921;-67
2023/12/23 14:53:55;;;;;;;;;;;;;;;13.34;71.50;100257.25;7362506;19;19938;-68
2023/12/23 14:56:20;;;;;;;;;;;;;;;13.33;71.44;100242.41;7357336;19;19907;-66
2023/12/23 14:58:46;;;;;;;;;;;;;;;13.34;71.44;100228.41;7366488;19;19934;-66
2023/12/23 15:01:11;;;;;;;;;;;;;;;13.34;71.30;100210.06;7361788;19;20611;-68
2023/12/23 15:03:36;;;;;;;;;;;;;;;13.34;71.32;100220.56;7366034;19;19915;-65
2023/12/23 15:06:01;;;;;;;;;;;;;;;13.33;71.37;100214.47;7364660;19;19921;-66
2023/12/23 15:08:27;;;;;;;;;;;;;;;13.34;70.98;100212.69;7361766;19;20026;-66
2023/12/23 15:10:52;;;;;;;;;;;;;;;13.34;71.26;100204.81;7363418;19;19914;-67
2023/12/23 15:13:20;;;;;;;;;;;;;;;13.34;71.07;100200.41;7361775;19;20002;-66
2023/12/23 15:15:46;;;;;;;;;;;;;;;13.34;71.10;100194.31;7359239;19;19939;-67
2023/12/23 15:18:11;;;;;;;;;;;;;;;13.34;71.14;100195.19;7363699;19;20502;-68
2023/12/23 15:20:36;;;;;;;;;;;;;;;13.33;71.11;100208.31;7362341;19;19915;-67
2023/12/23 15:23:02;;;;;;;;;;;;;;;13.34;70.71;100210.06;7365404;19;19935;-66
2023/12/23 15:25:27;;;;;;;;;;;;;;;13.33;71.07;100203.09;7364477;19;19918;-67
2023/12/23 15:27:53;;;;;;;;;;;;;;;13.32;71.00;100243.34;7363920;19;20545;-67
2023/12/23 15:30:18;;;;;;;;;;;;;;;13.32;70.65;100190.91;7360156;19;19930;-68
2023/12/23 15:32:43;;;;;;;;;;;;;;;13.31;71.10;100181.34;7365320;19;19923;-67
2023/12/23 15:35:08;;;;;;;;;;;;;;;13.30;71.09;100196.22;7362436;19;19919;-66
2023/12/23 15:37:34;;;;;;;;;;;;;;;13.30;70.83;100177.00;7363517;19;19943;-68
2023/12/23 15:39:59;;;;;;;;;;;;;;;13.30;71.13;100171.78;7363776;19;19928;-66
2023/12/23 15:42:24;;;;;;;;;;;;;;;13.29;70.95;100159.59;7366199;19;20710;-69
2023/12/23 15:44:50;;;;;;;;;;;;;;;13.28;70.81;100147.34;7362055;19;20588;-67
2023/12/23 15:47:15;;;;;;;;;;;;;;;13.28;70.82;100156.09;7364810;19;20006;-66
2023/12/23 15:49:40;;;;;;;;;;;;;;;13.27;70.85;100162.25;7353330;19;19927;-65
2023/12/23 15:52:06;;;;;;;;;;;;;;;13.26;70.69;100143.97;7369570;19;19927;-66
2023/12/23 15:54:31;;;;;;;;;;;;;;;13.23;70.98;100135.31;7361178;19;19942;-67
2023/12/23 15:56:56;;;;;;;;;;;;;;;13.21;70.95;100124.03;7362461;19;20317;-66
2023/12/23 15:59:23;;;;;;;;;;;;;;;13.20;70.81;100109.19;7361366;19;19939;-67
2023/12/23 16:01:48;;;;;;;;;;;;;;;13.19;70.86;100097.00;7365713;19;20302;-67
2023/12/23 16:04:14;;;;;;;;;;;;;;;13.17;70.91;100072.59;7361637;19;19919;-68
2023/12/23 16:06:40;;;;;;;;;;;;;;;13.15;70.89;100043.00;7364985;19;19919;-68
2023/12/23 16:09:05;;;;;;;;;;;;;;;13.14;71.13;100048.31;7364943;19;20006;-67
2023/12/23 16:11:30;;;;;;;;;;;;;;;13.12;71.05;100058.84;7364559;19;20726;-67
2023/12/23 16:13:56;;;;;;;;;;;;;;;13.11;70.96;100037.94;7362698;19;19986;-67
2023/12/23 16:16:21;;;;;;;;;;;;;;;13.10;71.42;100055.44;7360093;19;19927;-68
2023/12/23 16:18:46;;;;;;;;;;;;;;;13.10;71.57;100049.38;7364834;19;19918;-68
2023/12/23 16:21:12;;;;;;;;;;;;;;;13.08;71.42;100057.31;7363005;19;20284;-66
2023/12/23 16:23:38;;;;;;;;;;;;;;;13.07;71.69;100050.31;7365878;19;19930;-66
2023/12/23 16:26:03;;;;;;;;;;;;;;;13.07;71.47;100031.97;7361833;19;20338;-66
2023/12/23 16:28:29;;;;;;;;;;;;;;;13.05;71.65;100036.44;7366003;19;20311;-68
2023/12/23 16:30:54;;;;;;;;;;;;;;;13.05;71.34;100036.44;7369572;19;19991;-67
2023/12/23 16:33:20;;;;;;;;;;;;;;;13.05;71.64;100031.22;7363622;19;20658;-68
2023/12/23 16:35:45;;;;;;;;;;;;;;;13.04;71.81;100042.63;7362547;19;20437;-66
2023/12/23 16:38:10;;;;;;;;;;;;;;;13.03;71.74;100025.19;7363009;19;19915;-67
2023/12/23 16:40:35;;;;;;;;;;;;;;;13.02;71.85;100020.84;7361407;19;19940;-66
2023/12/23 16:43:01;;;;;;;;;;;;;;;13.01;71.84;100003.44;7364785;19;19930;-66
2023/12/23 16:45:26;;;;;;;;;;;;;;;13.00;71.80;99991.25;7356314;19;20248;-66
2023/12/23 16:47:52;;;;;;;;;;;;;;;12.97;71.56;99986.13;7361469;19;19929;-68
2023/12/23 16:50:17;;;;;;;;;;;;;;;12.95;71.74;99977.50;7362360;19;19923;-66
2023/12/23 16:52:43;;;;;;;;;;;;;;;12.92;71.54;99973.22;7363103;19;19926;-66
2023/12/23 16:55:09;;;;;;;;;;;;;;;12.90;72.09;99984.72;7364574;19;19923;-66
2023/12/23 16:57:35;;;;;;;;;;;;;;;12.86;71.75;99978.75;7358857;19;20351;-68
2023/12/23 17:00:00;;;;;;;;;;;;;;;12.84;72.15;99990.22;7363033;19;19915;-67
2023/12/23 17:02:25;;;;;;;;;;;;;;;12.83;72.18;99985.91;7358629;19;19946;-68
2023/12/23 17:04:51;;;;;;;;;;;;;;;12.81;72.41;100001.66;7362487;19;20312;-67
2023/12/23 17:07:16;;;;;;;;;;;;;;;12.82;72.17;99981.56;7361120;19;19919;-67
2023/12/23 17:09:41;;;;;;;;;;;;;;;12.81;72.62;99975.47;7362205;19;19923;-68
2023/12/23 17:12:06;;;;;;;;;;;;;;;12.80;72.46;99968.53;7360777;19;19938;-66
2023/12/23 17:14:32;;;;;;;;;;;;;;;12.80;72.37;99994.72;7369496;19;19925;-66